Flight Track Log - Related Links

Times and Time Zones

All times are in EST time to prevent confusion due to time zone crossing. See the EMD21 flight status page for this flight to view local times or setup timezone preferences in your user account.

Time Position Orientation Groundspeed Altitude Reporting Facility
EST Latitude Longitude Course Direction KTS MPH feet Rate Location/Type
Sun 05:25:04 PM 36.0586 -95.9819 319° Northwest 123 142 1,400  Level Kansas City Center
Sun 05:26:11 PM 36.0856 -96.0111 319° Northwest 142 163 2,800 1,291 Climbing Kansas City Center
Sun 05:26:23 PM 36.0911 -96.0217 303° West 145 167 3,100 1,600 Climbing Kansas City Center
Sun 05:27:11 PM 36.1056 -96.0544 299° West 144 166 4,400 1,600 Climbing Kansas City Center
Sun 05:27:23 PM 36.1097 -96.0658 294° West 141 162 4,700 1,433 Climbing Kansas City Center
Sun 05:28:18 PM 36.0983 -96.1061 251° West 165 190 6,000 1,232 Climbing Kansas City Center
Sun 05:29:15 PM 36.0608 -96.0928 164° South 152 175 7,000 1,100 Climbing Kansas City Center
Sun 05:29:18 PM 36.0575 -96.0931 184° South 157 181 7,100 103 Climbing Kansas City Center
Sun 05:30:13 PM 36.0081 -96.0789 167° South 211 243 7,100 -97 Level Kansas City Center
Sun 05:30:20 PM 36.0103 -96.0772 31° Northeast 168 193 7,000  Descending Kansas City Center
Sun 05:31:14 PM 35.9478 -96.0631 170° South 224 258 7,100  Climbing Kansas City Center
Sun 05:31:21 PM 35.9503 -96.0614 28° Northeast 198 228 7,000  Descending Kansas City Center
Sun 05:32:13 PM 35.8878 -96.0475 170° South 220 253 7,100  Climbing Kansas City Center
Sun 05:32:22 PM 35.8783 -96.0425 157° South 213 245 7,000  Descending Kansas City Center
Sun 05:33:14 PM 35.8278 -96.0322 171° South 220 253 7,100  Climbing Kansas City Center
Sun 05:33:26 PM 35.8181 -96.0272 157° South 217 250 7,000  Descending Kansas City Center
Sun 05:34:14 PM 35.7633 -96.0144 169° South 221 254 7,100  Climbing Kansas City Center
Sun 05:34:26 PM 35.7569 -96.0114 159° South 220 253 7,000 -80 Descending Kansas City Center
Sun 05:35:29 PM 35.6969 -95.9950 167° South 221 254 7,000  Level Kansas City Center
Sun 05:36:31 PM 35.6369 -95.9789 168° South 221 254 7,000  Level Kansas City Center
Sun 05:37:34 PM 35.5775 -95.9628 168° South 220 253 7,000  Level Kansas City Center
Sun 05:38:34 PM 35.5047 -95.9439 168° South 221 254 7,000  Level Kansas City Center
Sun 05:39:38 PM 35.4450 -95.9281 168° South 220 253 7,000  Level Kansas City Center
Sun 05:40:39 PM 35.3878 -95.9072 163° South 217 250 7,000 48 Level Kansas City Center
Sun 05:41:43 PM 35.3319 -95.8783 157° South 214 246 7,100 -236 Climbing Kansas City Center
Sun 05:42:46 PM 35.2619 -95.8508 162° South 221 254 6,500 -576 Descending Fort Worth Center
Sun 05:43:48 PM 35.2044 -95.8275 162° South 219 252 5,900 -581 Descending Fort Worth Center
Sun 05:44:50 PM 35.1536 -95.7878 147° Southeast 221 254 5,300 -823 Descending Fort Worth Center
Sun 05:45:52 PM 35.1047 -95.7414 142° Southeast 220 253 4,200 -1,016 Descending Fort Worth Center
Sun 05:46:54 PM 35.0542 -95.7083 152° Southeast 217 250 3,200 -968 Descending Fort Worth Center

Login

Don't have an account? Register now (free) for customized features, flight alerts, and more!